sensor_id;sensor_type;location;lat;lon;timestamp;P1;durP1;ratioP1;P2;durP2;ratioP2
2934;SDS011;2462;51.456;7.248;2023-03-26T00:01:05;2.73;;;1.40;;
2934;SDS011;2462;51.456;7.248;2023-03-26T00:03:32;2.70;;;1.07;;
2934;SDS011;2462;51.456;7.248;2023-03-26T00:06:09;2.80;;;1.50;;
2934;SDS011;2462;51.456;7.248;2023-03-26T00:08:40;1.40;;;1.30;;
2934;SDS011;2462;51.456;7.248;2023-03-26T00:11:10;1.37;;;1.17;;
2934;SDS011;2462;51.456;7.248;2023-03-26T00:13:39;1.40;;;1.20;;
2934;SDS011;2462;51.456;7.248;2023-03-26T00:16:09;2.60;;;1.33;;
2934;SDS011;2462;51.456;7.248;2023-03-26T00:18:37;2.33;;;1.40;;
2934;SDS011;2462;51.456;7.248;2023-03-26T00:21:04;1.73;;;1.30;;
2934;SDS011;2462;51.456;7.248;2023-03-26T00:23:32;2.90;;;1.40;;
2934;SDS011;2462;51.456;7.248;2023-03-26T00:25:59;1.30;;;1.20;;
2934;SDS011;2462;51.456;7.248;2023-03-26T00:28:27;3.93;;;1.20;;
2934;SDS011;2462;51.456;7.248;2023-03-26T00:31:02;2.10;;;1.37;;
2934;SDS011;2462;51.456;7.248;2023-03-26T00:33:29;1.20;;;1.10;;
2934;SDS011;2462;51.456;7.248;2023-03-26T00:35:57;1.50;;;1.30;;
2934;SDS011;2462;51.456;7.248;2023-03-26T00:38:25;2.70;;;1.50;;
2934;SDS011;2462;51.456;7.248;2023-03-26T00:40:52;2.43;;;1.43;;
2934;SDS011;2462;51.456;7.248;2023-03-26T00:43:19;2.20;;;1.37;;
2934;SDS011;2462;51.456;7.248;2023-03-26T00:45:47;1.70;;;1.60;;
2934;SDS011;2462;51.456;7.248;2023-03-26T00:48:14;1.57;;;1.30;;
2934;SDS011;2462;51.456;7.248;2023-03-26T00:50:40;1.40;;;1.27;;
2934;SDS011;2462;51.456;7.248;2023-03-26T00:53:07;2.40;;;1.27;;
2934;SDS011;2462;51.456;7.248;2023-03-26T00:55:36;2.23;;;1.60;;
2934;SDS011;2462;51.456;7.248;2023-03-26T00:58:05;2.03;;;1.20;;
2934;SDS011;2462;51.456;7.248;2023-03-26T01:00:41;2.00;;;1.80;;
2934;SDS011;2462;51.456;7.248;2023-03-26T01:03:15;2.17;;;1.30;;
2934;SDS011;2462;51.456;7.248;2023-03-26T01:05:59;2.53;;;1.73;;
2934;SDS011;2462;51.456;7.248;2023-03-26T01:08:35;2.40;;;1.40;;
2934;SDS011;2462;51.456;7.248;2023-03-26T01:11:15;1.70;;;1.60;;
2934;SDS011;2462;51.456;7.248;2023-03-26T01:13:55;4.63;;;1.30;;
2934;SDS011;2462;51.456;7.248;2023-03-26T01:21:59;4.03;;;1.37;;
2934;SDS011;2462;51.456;7.248;2023-03-26T01:24:29;4.50;;;1.30;;
2934;SDS011;2462;51.456;7.248;2023-03-26T01:40:45;2.27;;;2.03;;
2934;SDS011;2462;51.456;7.248;2023-03-26T01:46:12;3.30;;;1.60;;
2934;SDS011;2462;51.456;7.248;2023-03-26T01:48:43;3.73;;;1.53;;
2934;SDS011;2462;51.456;7.248;2023-03-26T01:51:10;1.93;;;1.57;;
2934;SDS011;2462;51.456;7.248;2023-03-26T01:53:39;1.50;;;1.40;;
2934;SDS011;2462;51.456;7.248;2023-03-26T01:59:02;2.60;;;1.80;;
2934;SDS011;2462;51.456;7.248;2023-03-26T02:05:15;2.63;;;1.50;;
2934;SDS011;2462;51.456;7.248;2023-03-26T02:10:30;3.40;;;1.73;;
2934;SDS011;2462;51.456;7.248;2023-03-26T02:13:02;4.03;;;1.63;;
2934;SDS011;2462;51.456;7.248;2023-03-26T02:15:30;2.90;;;1.60;;
2934;SDS011;2462;51.456;7.248;2023-03-26T02:18:04;2.87;;;1.40;;
2934;SDS011;2462;51.456;7.248;2023-03-26T02:20:30;1.70;;;1.47;;
2934;SDS011;2462;51.456;7.248;2023-03-26T02:22:56;1.80;;;1.60;;
2934;SDS011;2462;51.456;7.248;2023-03-26T02:25:22;2.73;;;1.40;;
2934;SDS011;2462;51.456;7.248;2023-03-26T02:27:49;1.40;;;1.20;;
2934;SDS011;2462;51.456;7.248;2023-03-26T02:30:17;2.63;;;1.23;;
2934;SDS011;2462;51.456;7.248;2023-03-26T02:32:49;2.47;;;1.50;;
2934;SDS011;2462;51.456;7.248;2023-03-26T02:35:16;4.80;;;2.13;;
2934;SDS011;2462;51.456;7.248;2023-03-26T02:37:41;3.30;;;1.40;;
2934;SDS011;2462;51.456;7.248;2023-03-26T02:40:10;4.20;;;1.90;;
2934;SDS011;2462;51.456;7.248;2023-03-26T02:42:36;2.43;;;1.60;;
2934;SDS011;2462;51.456;7.248;2023-03-26T02:45:03;3.03;;;1.73;;
2934;SDS011;2462;51.456;7.248;2023-03-26T02:47:30;3.13;;;1.50;;
2934;SDS011;2462;51.456;7.248;2023-03-26T02:49:57;2.90;;;1.43;;
2934;SDS011;2462;51.456;7.248;2023-03-26T02:52:23;3.77;;;1.73;;
2934;SDS011;2462;51.456;7.248;2023-03-26T02:54:49;5.73;;;1.90;;
2934;SDS011;2462;51.456;7.248;2023-03-26T02:57:14;4.80;;;1.70;;
2934;SDS011;2462;51.456;7.248;2023-03-26T02:59:40;3.00;;;1.47;;
2934;SDS011;2462;51.456;7.248;2023-03-26T03:02:08;3.87;;;1.50;;
2934;SDS011;2462;51.456;7.248;2023-03-26T03:04:37;2.20;;;1.30;;
2934;SDS011;2462;51.456;7.248;2023-03-26T03:07:05;9.77;;;2.10;;
2934;SDS011;2462;51.456;7.248;2023-03-26T03:09:38;8.30;;;3.47;;
2934;SDS011;2462;51.456;7.248;2023-03-26T03:12:04;1.70;;;1.47;;
2934;SDS011;2462;51.456;7.248;2023-03-26T03:14:29;3.17;;;1.40;;
2934;SDS011;2462;51.456;7.248;2023-03-26T03:16:55;2.37;;;1.50;;
2934;SDS011;2462;51.456;7.248;2023-03-26T03:19:21;6.10;;;2.20;;
2934;SDS011;2462;51.456;7.248;2023-03-26T03:21:47;2.67;;;1.57;;
2934;SDS011;2462;51.456;7.248;2023-03-26T03:24:12;4.93;;;1.53;;
2934;SDS011;2462;51.456;7.248;2023-03-26T03:26:42;4.07;;;1.53;;
2934;SDS011;2462;51.456;7.248;2023-03-26T03:29:09;2.20;;;1.30;;
2934;SDS011;2462;51.456;7.248;2023-03-26T03:31:36;3.20;;;1.60;;
2934;SDS011;2462;51.456;7.248;2023-03-26T03:34:01;2.50;;;1.70;;
2934;SDS011;2462;51.456;7.248;2023-03-26T03:36:27;2.50;;;1.47;;
2934;SDS011;2462;51.456;7.248;2023-03-26T03:38:54;4.53;;;1.40;;
2934;SDS011;2462;51.456;7.248;2023-03-26T03:41:26;4.90;;;1.50;;
2934;SDS011;2462;51.456;7.248;2023-03-26T03:43:52;3.00;;;1.20;;
2934;SDS011;2462;51.456;7.248;2023-03-26T03:46:17;2.10;;;1.70;;
2934;SDS011;2462;51.456;7.248;2023-03-26T03:48:43;3.00;;;1.60;;
2934;SDS011;2462;51.456;7.248;2023-03-26T03:51:13;3.50;;;1.50;;
2934;SDS011;2462;51.456;7.248;2023-03-26T03:53:40;2.73;;;1.50;;
2934;SDS011;2462;51.456;7.248;2023-03-26T03:56:05;3.87;;;2.40;;
2934;SDS011;2462;51.456;7.248;2023-03-26T03:58:34;2.93;;;1.43;;
2934;SDS011;2462;51.456;7.248;2023-03-26T04:00:59;2.80;;;1.60;;
2934;SDS011;2462;51.456;7.248;2023-03-26T04:03:27;3.73;;;1.53;;
2934;SDS011;2462;51.456;7.248;2023-03-26T04:05:53;3.33;;;1.70;;
2934;SDS011;2462;51.456;7.248;2023-03-26T04:08:22;2.97;;;1.43;;
2934;SDS011;2462;51.456;7.248;2023-03-26T04:10:48;2.70;;;1.40;;
2934;SDS011;2462;51.456;7.248;2023-03-26T04:13:17;2.13;;;1.40;;
2934;SDS011;2462;51.456;7.248;2023-03-26T04:15:43;1.73;;;1.40;;
2934;SDS011;2462;51.456;7.248;2023-03-26T04:18:09;2.57;;;1.80;;
2934;SDS011;2462;51.456;7.248;2023-03-26T04:20:36;3.53;;;1.80;;
2934;SDS011;2462;51.456;7.248;2023-03-26T04:23:04;5.33;;;1.40;;
2934;SDS011;2462;51.456;7.248;2023-03-26T04:25:31;3.23;;;1.63;;
2934;SDS011;2462;51.456;7.248;2023-03-26T04:27:58;1.93;;;1.10;;
2934;SDS011;2462;51.456;7.248;2023-03-26T04:30:30;3.57;;;1.30;;
2934;SDS011;2462;51.456;7.248;2023-03-26T04:32:58;2.23;;;1.40;;
2934;SDS011;2462;51.456;7.248;2023-03-26T04:35:28;3.30;;;1.50;;
2934;SDS011;2462;51.456;7.248;2023-03-26T04:38:00;3.07;;;1.70;;
2934;SDS011;2462;51.456;7.248;2023-03-26T04:40:30;2.40;;;1.30;;
2934;SDS011;2462;51.456;7.248;2023-03-26T04:42:59;4.30;;;1.73;;
2934;SDS011;2462;51.456;7.248;2023-03-26T04:45:26;2.90;;;1.43;;
2934;SDS011;2462;51.456;7.248;2023-03-26T04:47:54;2.63;;;1.20;;
2934;SDS011;2462;51.456;7.248;2023-03-26T04:50:23;4.33;;;1.87;;
2934;SDS011;2462;51.456;7.248;2023-03-26T04:52:50;5.00;;;1.73;;
2934;SDS011;2462;51.456;7.248;2023-03-26T04:55:23;1.90;;;1.80;;
2934;SDS011;2462;51.456;7.248;2023-03-26T04:57:55;2.60;;;1.20;;
2934;SDS011;2462;51.456;7.248;2023-03-26T05:00:24;2.80;;;1.40;;
2934;SDS011;2462;51.456;7.248;2023-03-26T05:02:50;4.40;;;1.60;;
2934;SDS011;2462;51.456;7.248;2023-03-26T05:05:17;2.10;;;1.53;;
2934;SDS011;2462;51.456;7.248;2023-03-26T05:07:43;2.73;;;1.60;;
2934;SDS011;2462;51.456;7.248;2023-03-26T05:10:13;1.67;;;1.20;;
2934;SDS011;2462;51.456;7.248;2023-03-26T05:12:40;3.10;;;1.73;;
2934;SDS011;2462;51.456;7.248;2023-03-26T05:15:06;3.50;;;1.73;;
2934;SDS011;2462;51.456;7.248;2023-03-26T05:17:33;3.50;;;1.63;;
2934;SDS011;2462;51.456;7.248;2023-03-26T05:19:59;2.07;;;1.40;;
2934;SDS011;2462;51.456;7.248;2023-03-26T05:22:25;4.23;;;1.90;;
2934;SDS011;2462;51.456;7.248;2023-03-26T05:24:51;4.57;;;1.43;;
2934;SDS011;2462;51.456;7.248;2023-03-26T05:27:16;2.83;;;1.50;;
2934;SDS011;2462;51.456;7.248;2023-03-26T05:29:46;2.70;;;1.50;;
2934;SDS011;2462;51.456;7.248;2023-03-26T05:32:11;2.50;;;1.57;;
2934;SDS011;2462;51.456;7.248;2023-03-26T05:34:38;2.00;;;1.30;;
2934;SDS011;2462;51.456;7.248;2023-03-26T05:37:04;1.90;;;1.57;;
2934;SDS011;2462;51.456;7.248;2023-03-26T05:39:30;2.90;;;1.43;;
2934;SDS011;2462;51.456;7.248;2023-03-26T05:41:56;2.00;;;1.70;;
2934;SDS011;2462;51.456;7.248;2023-03-26T05:44:22;4.50;;;1.60;;
2934;SDS011;2462;51.456;7.248;2023-03-26T05:46:48;1.83;;;1.30;;
2934;SDS011;2462;51.456;7.248;2023-03-26T05:49:13;1.93;;;1.27;;
2934;SDS011;2462;51.456;7.248;2023-03-26T05:51:39;2.40;;;1.80;;
2934;SDS011;2462;51.456;7.248;2023-03-26T05:54:05;4.77;;;1.97;;
2934;SDS011;2462;51.456;7.248;2023-03-26T05:56:30;2.47;;;1.33;;
2934;SDS011;2462;51.456;7.248;2023-03-26T05:58:56;3.07;;;1.60;;
2934;SDS011;2462;51.456;7.248;2023-03-26T06:01:21;5.20;;;2.03;;
2934;SDS011;2462;51.456;7.248;2023-03-26T06:03:49;4.30;;;1.40;;
2934;SDS011;2462;51.456;7.248;2023-03-26T06:06:15;2.53;;;1.60;;
2934;SDS011;2462;51.456;7.248;2023-03-26T06:08:42;3.30;;;1.57;;
2934;SDS011;2462;51.456;7.248;2023-03-26T06:11:13;1.77;;;1.47;;
2934;SDS011;2462;51.456;7.248;2023-03-26T06:13:39;2.60;;;1.30;;
2934;SDS011;2462;51.456;7.248;2023-03-26T06:16:06;2.60;;;1.30;;
2934;SDS011;2462;51.456;7.248;2023-03-26T06:18:36;3.10;;;1.40;;
2934;SDS011;2462;51.456;7.248;2023-03-26T06:21:03;6.60;;;1.60;;
2934;SDS011;2462;51.456;7.248;2023-03-26T06:23:29;2.33;;;1.50;;
2934;SDS011;2462;51.456;7.248;2023-03-26T06:25:55;3.00;;;1.37;;
2934;SDS011;2462;51.456;7.248;2023-03-26T06:28:21;3.20;;;1.53;;
2934;SDS011;2462;51.456;7.248;2023-03-26T06:30:47;3.53;;;2.03;;
2934;SDS011;2462;51.456;7.248;2023-03-26T06:33:12;3.00;;;1.80;;
2934;SDS011;2462;51.456;7.248;2023-03-26T06:35:38;3.10;;;1.80;;
2934;SDS011;2462;51.456;7.248;2023-03-26T06:38:03;3.73;;;1.53;;
2934;SDS011;2462;51.456;7.248;2023-03-26T06:40:31;2.77;;;1.57;;
2934;SDS011;2462;51.456;7.248;2023-03-26T06:42:57;2.60;;;1.77;;
2934;SDS011;2462;51.456;7.248;2023-03-26T06:45:25;1.80;;;1.27;;
2934;SDS011;2462;51.456;7.248;2023-03-26T06:47:51;3.90;;;2.60;;
2934;SDS011;2462;51.456;7.248;2023-03-26T06:50:16;2.23;;;1.77;;
2934;SDS011;2462;51.456;7.248;2023-03-26T06:52:42;2.43;;;1.50;;
2934;SDS011;2462;51.456;7.248;2023-03-26T06:55:08;4.80;;;1.80;;
2934;SDS011;2462;51.456;7.248;2023-03-26T06:57:34;2.10;;;1.20;;
2934;SDS011;2462;51.456;7.248;2023-03-26T07:00:00;2.43;;;1.60;;
2934;SDS011;2462;51.456;7.248;2023-03-26T07:02:26;3.50;;;1.40;;
2934;SDS011;2462;51.456;7.248;2023-03-26T07:04:51;3.70;;;1.50;;
2934;SDS011;2462;51.456;7.248;2023-03-26T07:07:17;2.33;;;1.73;;
2934;SDS011;2462;51.456;7.248;2023-03-26T07:09:45;8.73;;;2.90;;
2934;SDS011;2462;51.456;7.248;2023-03-26T07:12:12;6.30;;;2.70;;
2934;SDS011;2462;51.456;7.248;2023-03-26T07:14:38;16.80;;;3.67;;
2934;SDS011;2462;51.456;7.248;2023-03-26T07:17:03;7.93;;;2.50;;
2934;SDS011;2462;51.456;7.248;2023-03-26T07:19:29;11.63;;;2.90;;
2934;SDS011;2462;51.456;7.248;2023-03-26T07:21:54;14.40;;;2.60;;
2934;SDS011;2462;51.456;7.248;2023-03-26T07:24:20;7.77;;;2.47;;
2934;SDS011;2462;51.456;7.248;2023-03-26T07:29:26;8.60;;;2.57;;
2934;SDS011;2462;51.456;7.248;2023-03-26T07:32:12;5.60;;;2.60;;
2934;SDS011;2462;51.456;7.248;2023-03-26T07:35:14;6.30;;;2.67;;
2934;SDS011;2462;51.456;7.248;2023-03-26T07:40:45;8.10;;;2.43;;
2934;SDS011;2462;51.456;7.248;2023-03-26T07:46:05;6.30;;;2.47;;
2934;SDS011;2462;51.456;7.248;2023-03-26T07:48:43;4.97;;;2.10;;
2934;SDS011;2462;51.456;7.248;2023-03-26T07:51:12;6.57;;;2.00;;
2934;SDS011;2462;51.456;7.248;2023-03-26T07:53:38;7.63;;;2.97;;
2934;SDS011;2462;51.456;7.248;2023-03-26T08:01:49;5.90;;;2.50;;
2934;SDS011;2462;51.456;7.248;2023-03-26T08:07:16;5.80;;;2.27;;
2934;SDS011;2462;51.456;7.248;2023-03-26T08:15:14;6.97;;;2.67;;
2934;SDS011;2462;51.456;7.248;2023-03-26T08:17:58;8.10;;;2.17;;
2934;SDS011;2462;51.456;7.248;2023-03-26T08:20:52;3.97;;;2.30;;
2934;SDS011;2462;51.456;7.248;2023-03-26T08:26:30;5.43;;;1.80;;
2934;SDS011;2462;51.456;7.248;2023-03-26T08:31:40;3.50;;;2.17;;
2934;SDS011;2462;51.456;7.248;2023-03-26T08:34:09;3.73;;;1.67;;
2934;SDS011;2462;51.456;7.248;2023-03-26T08:36:36;6.90;;;2.47;;
2934;SDS011;2462;51.456;7.248;2023-03-26T08:39:02;7.00;;;3.00;;
2934;SDS011;2462;51.456;7.248;2023-03-26T08:41:38;4.43;;;2.40;;
2934;SDS011;2462;51.456;7.248;2023-03-26T08:44:36;3.90;;;2.00;;
2934;SDS011;2462;51.456;7.248;2023-03-26T08:56:19;4.37;;;2.27;;
2934;SDS011;2462;51.456;7.248;2023-03-26T08:59:17;6.37;;;2.20;;
2934;SDS011;2462;51.456;7.248;2023-03-26T09:18:50;3.17;;;1.80;;
2934;SDS011;2462;51.456;7.248;2023-03-26T09:24:35;4.20;;;2.10;;
2934;SDS011;2462;51.456;7.248;2023-03-26T09:35:11;7.73;;;2.50;;
2934;SDS011;2462;51.456;7.248;2023-03-26T09:40:17;6.60;;;2.30;;
2934;SDS011;2462;51.456;7.248;2023-03-26T09:45:42;6.40;;;2.00;;
2934;SDS011;2462;51.456;7.248;2023-03-26T09:53:50;6.63;;;2.47;;
2934;SDS011;2462;51.456;7.248;2023-03-26T09:56:46;5.30;;;2.07;;
2934;SDS011;2462;51.456;7.248;2023-03-26T09:59:22;6.33;;;2.63;;
2934;SDS011;2462;51.456;7.248;2023-03-26T10:01:56;4.10;;;1.80;;
2934;SDS011;2462;51.456;7.248;2023-03-26T10:10:00;2.60;;;1.70;;
2934;SDS011;2462;51.456;7.248;2023-03-26T10:12:31;4.97;;;1.80;;
2934;SDS011;2462;51.456;7.248;2023-03-26T10:30:45;4.00;;;1.97;;
2934;SDS011;2462;51.456;7.248;2023-03-26T10:33:27;3.87;;;2.07;;
2934;SDS011;2462;51.456;7.248;2023-03-26T10:41:02;2.47;;;1.90;;
2934;SDS011;2462;51.456;7.248;2023-03-26T10:46:03;3.40;;;1.70;;
2934;SDS011;2462;51.456;7.248;2023-03-26T10:48:39;3.30;;;2.03;;
2934;SDS011;2462;51.456;7.248;2023-03-26T10:51:30;2.80;;;1.87;;
2934;SDS011;2462;51.456;7.248;2023-03-26T10:56:39;2.90;;;1.53;;
2934;SDS011;2462;51.456;7.248;2023-03-26T10:59:06;3.90;;;1.90;;
2934;SDS011;2462;51.456;7.248;2023-03-26T11:04:15;2.10;;;1.90;;
2934;SDS011;2462;51.456;7.248;2023-03-26T11:07:30;6.77;;;2.17;;
2934;SDS011;2462;51.456;7.248;2023-03-26T11:09:50;4.50;;;1.83;;
2934;SDS011;2462;51.456;7.248;2023-03-26T11:14:59;2.67;;;1.30;;
2934;SDS011;2462;51.456;7.248;2023-03-26T11:17:50;3.90;;;1.80;;
2934;SDS011;2462;51.456;7.248;2023-03-26T11:20:21;2.97;;;1.73;;
2934;SDS011;2462;51.456;7.248;2023-03-26T11:23:02;4.27;;;1.80;;
2934;SDS011;2462;51.456;7.248;2023-03-26T11:30:47;3.33;;;1.90;;
2934;SDS011;2462;51.456;7.248;2023-03-26T11:33:19;2.13;;;1.70;;
2934;SDS011;2462;51.456;7.248;2023-03-26T11:35:48;2.13;;;1.53;;
2934;SDS011;2462;51.456;7.248;2023-03-26T11:40:44;2.70;;;1.80;;
2934;SDS011;2462;51.456;7.248;2023-03-26T11:43:14;2.97;;;1.50;;
2934;SDS011;2462;51.456;7.248;2023-03-26T11:45:45;2.53;;;1.40;;
2934;SDS011;2462;51.456;7.248;2023-03-26T11:48:15;2.53;;;1.90;;
2934;SDS011;2462;51.456;7.248;2023-03-26T11:50:44;3.07;;;1.70;;
2934;SDS011;2462;51.456;7.248;2023-03-26T11:53:12;2.23;;;1.30;;
2934;SDS011;2462;51.456;7.248;2023-03-26T11:55:40;2.90;;;1.40;;
2934;SDS011;2462;51.456;7.248;2023-03-26T11:58:11;7.67;;;1.80;;
2934;SDS011;2462;51.456;7.248;2023-03-26T12:00:43;1.97;;;1.50;;
2934;SDS011;2462;51.456;7.248;2023-03-26T12:03:13;1.90;;;1.30;;
2934;SDS011;2462;51.456;7.248;2023-03-26T12:05:47;2.23;;;1.33;;
2934;SDS011;2462;51.456;7.248;2023-03-26T12:08:18;1.77;;;1.10;;
2934;SDS011;2462;51.456;7.248;2023-03-26T12:10:45;3.20;;;1.40;;
2934;SDS011;2462;51.456;7.248;2023-03-26T12:15:47;2.20;;;1.60;;
2934;SDS011;2462;51.456;7.248;2023-03-26T12:18:32;5.40;;;1.30;;
2934;SDS011;2462;51.456;7.248;2023-03-26T12:23:36;1.70;;;1.30;;
2934;SDS011;2462;51.456;7.248;2023-03-26T12:26:04;1.83;;;1.20;;
2934;SDS011;2462;51.456;7.248;2023-03-26T12:28:36;1.70;;;1.37;;
2934;SDS011;2462;51.456;7.248;2023-03-26T12:31:09;2.63;;;1.30;;
2934;SDS011;2462;51.456;7.248;2023-03-26T12:33:42;1.97;;;1.10;;
2934;SDS011;2462;51.456;7.248;2023-03-26T12:36:42;2.30;;;1.60;;
2934;SDS011;2462;51.456;7.248;2023-03-26T12:39:10;1.50;;;0.93;;
2934;SDS011;2462;51.456;7.248;2023-03-26T12:41:53;1.50;;;1.10;;
2934;SDS011;2462;51.456;7.248;2023-03-26T12:46:47;1.97;;;1.20;;
2934;SDS011;2462;51.456;7.248;2023-03-26T12:49:13;6.13;;;1.70;;
2934;SDS011;2462;51.456;7.248;2023-03-26T12:59:22;17.27;;;3.77;;
2934;SDS011;2462;51.456;7.248;2023-03-26T13:04:41;3.53;;;1.03;;
2934;SDS011;2462;51.456;7.248;2023-03-26T13:07:32;2.87;;;1.30;;
2934;SDS011;2462;51.456;7.248;2023-03-26T13:15:26;1.73;;;1.40;;
2934;SDS011;2462;51.456;7.248;2023-03-26T13:18:10;2.40;;;1.30;;
2934;SDS011;2462;51.456;7.248;2023-03-26T13:23:23;1.50;;;1.00;;
2934;SDS011;2462;51.456;7.248;2023-03-26T13:31:18;2.90;;;1.10;;
2934;SDS011;2462;51.456;7.248;2023-03-26T13:44:11;2.40;;;1.57;;
2934;SDS011;2462;51.456;7.248;2023-03-26T13:46:42;3.60;;;1.40;;
2934;SDS011;2462;51.456;7.248;2023-03-26T13:49:10;2.80;;;1.00;;
2934;SDS011;2462;51.456;7.248;2023-03-26T13:51:55;1.70;;;1.07;;
2934;SDS011;2462;51.456;7.248;2023-03-26T13:54:27;1.57;;;0.90;;
2934;SDS011;2462;51.456;7.248;2023-03-26T13:56:59;1.73;;;1.10;;
2934;SDS011;2462;51.456;7.248;2023-03-26T13:59:29;3.00;;;1.00;;
2934;SDS011;2462;51.456;7.248;2023-03-26T14:01:58;6.20;;;1.23;;
2934;SDS011;2462;51.456;7.248;2023-03-26T14:04:38;6.30;;;1.10;;
2934;SDS011;2462;51.456;7.248;2023-03-26T14:07:15;2.73;;;1.07;;
2934;SDS011;2462;51.456;7.248;2023-03-26T14:09:55;1.40;;;1.00;;
2934;SDS011;2462;51.456;7.248;2023-03-26T14:15:05;7.63;;;1.60;;
2934;SDS011;2462;51.456;7.248;2023-03-26T14:20:22;13.57;;;1.30;;
2934;SDS011;2462;51.456;7.248;2023-03-26T14:25:31;5.27;;;1.20;;
2934;SDS011;2462;51.456;7.248;2023-03-26T14:30:57;2.03;;;1.10;;
2934;SDS011;2462;51.456;7.248;2023-03-26T14:38:46;3.07;;;1.17;;
2934;SDS011;2462;51.456;7.248;2023-03-26T14:51:22;2.53;;;1.23;;
2934;SDS011;2462;51.456;7.248;2023-03-26T14:53:58;3.00;;;1.20;;
2934;SDS011;2462;51.456;7.248;2023-03-26T14:57:10;2.80;;;1.20;;
2934;SDS011;2462;51.456;7.248;2023-03-26T15:04:33;1.50;;;1.03;;
2934;SDS011;2462;51.456;7.248;2023-03-26T15:21:16;2.60;;;1.20;;
2934;SDS011;2462;51.456;7.248;2023-03-26T15:24:01;6.73;;;1.20;;
2934;SDS011;2462;51.456;7.248;2023-03-26T15:42:52;2.13;;;1.20;;
2934;SDS011;2462;51.456;7.248;2023-03-26T15:45:43;2.70;;;1.13;;
2934;SDS011;2462;51.456;7.248;2023-03-26T15:53:16;1.47;;;0.97;;
2934;SDS011;2462;51.456;7.248;2023-03-26T16:01:09;1.77;;;1.10;;
2934;SDS011;2462;51.456;7.248;2023-03-26T16:09:08;4.30;;;1.07;;
2934;SDS011;2462;51.456;7.248;2023-03-26T16:17:24;1.90;;;1.10;;
2934;SDS011;2462;51.456;7.248;2023-03-26T16:19:51;1.10;;;0.87;;
2934;SDS011;2462;51.456;7.248;2023-03-26T16:25:27;1.87;;;0.90;;
2934;SDS011;2462;51.456;7.248;2023-03-26T16:28:15;1.30;;;1.00;;
2934;SDS011;2462;51.456;7.248;2023-03-26T16:33:43;1.60;;;1.10;;
2934;SDS011;2462;51.456;7.248;2023-03-26T16:41:27;2.70;;;1.23;;
2934;SDS011;2462;51.456;7.248;2023-03-26T16:44:05;2.13;;;1.40;;
2934;SDS011;2462;51.456;7.248;2023-03-26T17:04:19;2.17;;;1.70;;
2934;SDS011;2462;51.456;7.248;2023-03-26T17:06:56;2.20;;;1.73;;
2934;SDS011;2462;51.456;7.248;2023-03-26T17:09:33;2.67;;;1.60;;
2934;SDS011;2462;51.456;7.248;2023-03-26T17:12:07;3.73;;;1.67;;
2934;SDS011;2462;51.456;7.248;2023-03-26T17:14:46;1.90;;;1.47;;
2934;SDS011;2462;51.456;7.248;2023-03-26T17:17:34;5.30;;;1.57;;
2934;SDS011;2462;51.456;7.248;2023-03-26T17:22:45;2.67;;;1.70;;
2934;SDS011;2462;51.456;7.248;2023-03-26T17:25:18;3.10;;;1.47;;
2934;SDS011;2462;51.456;7.248;2023-03-26T17:30:45;2.00;;;1.60;;
2934;SDS011;2462;51.456;7.248;2023-03-26T17:41:05;3.23;;;1.73;;
2934;SDS011;2462;51.456;7.248;2023-03-26T17:48:58;1.83;;;1.67;;
2934;SDS011;2462;51.456;7.248;2023-03-26T17:56:41;2.50;;;1.87;;
2934;SDS011;2462;51.456;7.248;2023-03-26T17:59:09;3.33;;;2.13;;
2934;SDS011;2462;51.456;7.248;2023-03-26T18:01:47;1.70;;;1.33;;
2934;SDS011;2462;51.456;7.248;2023-03-26T18:04:18;5.00;;;2.30;;
2934;SDS011;2462;51.456;7.248;2023-03-26T18:12:35;5.43;;;2.10;;
2934;SDS011;2462;51.456;7.248;2023-03-26T18:15:20;1.97;;;1.67;;
2934;SDS011;2462;51.456;7.248;2023-03-26T18:18:05;3.10;;;1.60;;
2934;SDS011;2462;51.456;7.248;2023-03-26T18:20:43;2.77;;;1.90;;
2934;SDS011;2462;51.456;7.248;2023-03-26T18:23:21;1.73;;;1.30;;
2934;SDS011;2462;51.456;7.248;2023-03-26T18:25:54;2.10;;;1.90;;
2934;SDS011;2462;51.456;7.248;2023-03-26T18:28:42;4.70;;;1.97;;
2934;SDS011;2462;51.456;7.248;2023-03-26T18:31:15;2.27;;;1.87;;
2934;SDS011;2462;51.456;7.248;2023-03-26T18:33:42;3.80;;;1.77;;
2934;SDS011;2462;51.456;7.248;2023-03-26T18:36:13;5.67;;;1.90;;
2934;SDS011;2462;51.456;7.248;2023-03-26T18:38:40;4.13;;;1.73;;
2934;SDS011;2462;51.456;7.248;2023-03-26T18:41:06;2.50;;;1.97;;
2934;SDS011;2462;51.456;7.248;2023-03-26T18:44:13;3.33;;;1.80;;
2934;SDS011;2462;51.456;7.248;2023-03-26T18:46:40;3.40;;;2.20;;
2934;SDS011;2462;51.456;7.248;2023-03-26T18:49:08;2.10;;;1.60;;
2934;SDS011;2462;51.456;7.248;2023-03-26T18:51:36;2.47;;;1.77;;
2934;SDS011;2462;51.456;7.248;2023-03-26T18:54:02;2.40;;;1.97;;
2934;SDS011;2462;51.456;7.248;2023-03-26T18:56:37;3.13;;;1.70;;
2934;SDS011;2462;51.456;7.248;2023-03-26T18:59:06;5.20;;;2.03;;
2934;SDS011;2462;51.456;7.248;2023-03-26T19:01:55;2.93;;;1.70;;
2934;SDS011;2462;51.456;7.248;2023-03-26T19:04:23;7.93;;;2.00;;
2934;SDS011;2462;51.456;7.248;2023-03-26T19:06:50;4.23;;;1.87;;
2934;SDS011;2462;51.456;7.248;2023-03-26T19:09:20;3.87;;;1.60;;
2934;SDS011;2462;51.456;7.248;2023-03-26T19:11:47;2.60;;;1.80;;
2934;SDS011;2462;51.456;7.248;2023-03-26T19:14:18;3.57;;;1.80;;
2934;SDS011;2462;51.456;7.248;2023-03-26T19:16:45;3.03;;;1.97;;
2934;SDS011;2462;51.456;7.248;2023-03-26T19:19:15;1.77;;;1.53;;
2934;SDS011;2462;51.456;7.248;2023-03-26T19:21:47;2.53;;;2.00;;
2934;SDS011;2462;51.456;7.248;2023-03-26T19:24:15;2.97;;;1.80;;
2934;SDS011;2462;51.456;7.248;2023-03-26T19:26:43;3.20;;;2.00;;
2934;SDS011;2462;51.456;7.248;2023-03-26T19:29:20;4.70;;;1.97;;
2934;SDS011;2462;51.456;7.248;2023-03-26T19:32:05;3.07;;;1.77;;
2934;SDS011;2462;51.456;7.248;2023-03-26T19:34:43;4.00;;;2.03;;
2934;SDS011;2462;51.456;7.248;2023-03-26T19:37:23;3.90;;;1.80;;
2934;SDS011;2462;51.456;7.248;2023-03-26T19:39:51;2.00;;;1.80;;
2934;SDS011;2462;51.456;7.248;2023-03-26T19:42:38;2.97;;;2.13;;
2934;SDS011;2462;51.456;7.248;2023-03-26T19:45:09;3.10;;;1.93;;
2934;SDS011;2462;51.456;7.248;2023-03-26T19:47:40;4.60;;;2.57;;
2934;SDS011;2462;51.456;7.248;2023-03-26T19:55:56;2.07;;;1.70;;
2934;SDS011;2462;51.456;7.248;2023-03-26T19:58:26;4.50;;;2.57;;
2934;SDS011;2462;51.456;7.248;2023-03-26T20:00:52;4.43;;;3.33;;
2934;SDS011;2462;51.456;7.248;2023-03-26T20:03:29;4.40;;;3.10;;
2934;SDS011;2462;51.456;7.248;2023-03-26T20:06:02;5.20;;;3.27;;
2934;SDS011;2462;51.456;7.248;2023-03-26T20:08:28;7.30;;;3.00;;
2934;SDS011;2462;51.456;7.248;2023-03-26T20:10:54;4.47;;;3.20;;
2934;SDS011;2462;51.456;7.248;2023-03-26T20:13:21;4.43;;;2.33;;
2934;SDS011;2462;51.456;7.248;2023-03-26T20:15:56;3.90;;;3.07;;
2934;SDS011;2462;51.456;7.248;2023-03-26T20:18:27;4.40;;;3.13;;
2934;SDS011;2462;51.456;7.248;2023-03-26T20:20:52;4.83;;;3.20;;
2934;SDS011;2462;51.456;7.248;2023-03-26T20:23:18;4.70;;;2.83;;
2934;SDS011;2462;51.456;7.248;2023-03-26T20:25:45;3.70;;;2.80;;
2934;SDS011;2462;51.456;7.248;2023-03-26T20:28:17;4.87;;;3.03;;
2934;SDS011;2462;51.456;7.248;2023-03-26T20:30:46;4.63;;;2.83;;
2934;SDS011;2462;51.456;7.248;2023-03-26T20:33:21;4.20;;;2.50;;
2934;SDS011;2462;51.456;7.248;2023-03-26T20:35:54;3.67;;;2.80;;
2934;SDS011;2462;51.456;7.248;2023-03-26T20:38:22;3.57;;;2.57;;
2934;SDS011;2462;51.456;7.248;2023-03-26T20:40:50;2.80;;;2.50;;
2934;SDS011;2462;51.456;7.248;2023-03-26T20:43:17;3.97;;;3.10;;
2934;SDS011;2462;51.456;7.248;2023-03-26T20:45:44;3.03;;;2.43;;
2934;SDS011;2462;51.456;7.248;2023-03-26T20:48:10;5.43;;;2.63;;
2934;SDS011;2462;51.456;7.248;2023-03-26T20:50:36;4.77;;;3.20;;
2934;SDS011;2462;51.456;7.248;2023-03-26T20:53:12;3.73;;;2.40;;
2934;SDS011;2462;51.456;7.248;2023-03-26T20:55:40;4.80;;;2.50;;
2934;SDS011;2462;51.456;7.248;2023-03-26T20:58:11;3.40;;;2.07;;
2934;SDS011;2462;51.456;7.248;2023-03-26T21:00:38;5.13;;;3.47;;
2934;SDS011;2462;51.456;7.248;2023-03-26T21:03:03;2.80;;;2.60;;
2934;SDS011;2462;51.456;7.248;2023-03-26T21:05:29;4.03;;;2.70;;
2934;SDS011;2462;51.456;7.248;2023-03-26T21:07:58;4.70;;;2.70;;
2934;SDS011;2462;51.456;7.248;2023-03-26T21:10:25;6.83;;;2.27;;
2934;SDS011;2462;51.456;7.248;2023-03-26T21:12:57;5.20;;;2.83;;
2934;SDS011;2462;51.456;7.248;2023-03-26T21:15:27;6.80;;;2.20;;
2934;SDS011;2462;51.456;7.248;2023-03-26T21:17:53;4.20;;;2.73;;
2934;SDS011;2462;51.456;7.248;2023-03-26T21:20:19;4.10;;;2.20;;